Time;durP1;ratioP1;P1;durP2;ratioP2;P2;SDS_P1;SDS_P2;PMS_P1;PMS_P2;Temp;Humidity;BMP_temperature;BMP_pressure;BME280_temperature;BME280_humidity;BME280_pressure;Samples;Min_cycle;Max_cycle;Signal;HPM_P1;HPM_P2
2022/01/13 00:01:32;;;;;;;63.85;28.75;;;-1.70;99.90;;;;;;5005464;28;20060;-84
2022/01/13 00:03:59;;;;;;;61.83;28.83;;;-1.70;99.90;;;;;;5002550;28;20025;-84
2022/01/13 00:06:25;;;;;;;68.72;30.52;;;-1.70;99.90;;;;;;5020161;28;20030;-83
2022/01/13 00:08:51;;;;;;;78.88;32.83;;;-1.60;99.90;;;;;;5020453;28;20072;-83
2022/01/13 00:11:16;;;;;;;68.00;29.83;;;-1.60;99.90;;;;;;5022348;28;20038;-83
2022/01/13 00:13:53;;;;;;;76.05;34.58;;;-1.60;99.90;;;;;;5005591;28;20026;-85
2022/01/13 00:21:47;;;;;;;65.00;30.10;;;-1.60;99.90;;;;;;5021974;28;20034;-85
2022/01/13 00:24:13;;;;;;;76.70;33.35;;;-1.60;99.90;;;;;;5012026;28;20034;-83
2022/01/13 00:26:40;;;;;;;64.50;28.77;;;-1.60;99.90;;;;;;5023121;28;20033;-84
2022/01/13 00:29:07;;;;;;;70.40;30.27;;;-1.50;99.90;;;;;;5023574;28;20030;-85
2022/01/13 00:31:35;;;;;;;65.03;29.65;;;-1.50;99.90;;;;;;5022836;28;20038;-84
2022/01/13 00:34:04;;;;;;;73.25;30.92;;;-1.50;99.90;;;;;;5022490;28;20040;-84
2022/01/13 00:36:33;;;;;;;72.82;32.45;;;-1.50;99.90;;;;;;5027894;28;20042;-84
2022/01/13 00:38:59;;;;;;;70.18;29.00;;;-1.50;99.90;;;;;;5038981;28;20081;-83
2022/01/13 00:41:27;;;;;;;72.57;29.25;;;-1.50;99.90;;;;;;5023684;28;20040;-85
2022/01/13 00:43:55;;;;;;;63.42;27.55;;;-1.50;99.90;;;;;;5026410;28;20053;-84
2022/01/13 00:46:23;;;;;;;71.22;30.70;;;-1.50;99.90;;;;;;5029583;28;20041;-84
2022/01/13 00:48:51;;;;;;;64.85;28.50;;;-1.50;99.90;;;;;;5028334;28;20022;-83
2022/01/13 00:51:17;;;;;;;60.42;29.15;;;-1.50;99.90;;;;;;5027279;28;20030;-84
2022/01/13 00:53:43;;;;;;;61.35;27.52;;;-1.40;99.90;;;;;;5007115;28;20029;-83
2022/01/13 00:56:10;;;;;;;56.25;25.55;;;-1.40;99.90;;;;;;5027433;28;20041;-84
2022/01/13 00:58:36;;;;;;;55.90;24.98;;;-1.30;99.90;;;;;;5022467;28;20026;-84
2022/01/13 01:01:05;;;;;;;57.90;24.75;;;-1.20;99.90;;;;;;5005830;28;20115;-84
2022/01/13 01:03:31;;;;;;;57.08;25.20;;;-1.20;99.90;;;;;;5024389;28;20030;-84
2022/01/13 01:05:57;;;;;;;52.17;25.83;;;-1.20;99.90;;;;;;5019916;28;20529;-85
2022/01/13 01:08:25;;;;;;;51.50;22.45;;;-1.20;99.90;;;;;;5021420;28;20034;-84
2022/01/13 01:10:53;;;;;;;54.92;24.23;;;-1.20;99.90;;;;;;5020079;28;20034;-84
2022/01/13 01:13:22;;;;;;;54.25;23.90;;;-1.20;99.90;;;;;;5021649;28;20041;-84
2022/01/13 01:15:53;;;;;;;59.00;26.38;;;-1.20;99.90;;;;;;5021349;28;20094;-85
2022/01/13 01:28:52;;;;;;;55.70;26.70;;;-1.00;99.90;;;;;;5021963;28;20037;-85
2022/01/13 01:31:25;;;;;;;;;;;-1.00;99.90;;;;;;5004785;28;20457;-83
2022/01/13 01:34:06;;;;;;;54.95;24.15;;;-1.00;99.90;;;;;;5005501;28;20061;-83
2022/01/13 01:36:32;;;;;;;60.90;26.58;;;-1.00;99.90;;;;;;5004816;28;20093;-84
2022/01/13 01:38:59;;;;;;;63.10;28.55;;;-1.00;99.90;;;;;;5009046;28;20036;-83
2022/01/13 01:41:26;;;;;;;64.25;29.55;;;-1.10;99.90;;;;;;5034312;28;20014;-83
2022/01/13 01:43:54;;;;;;;62.22;28.77;;;-1.20;99.90;;;;;;5026472;28;20106;-84
2022/01/13 01:46:20;;;;;;;59.60;26.80;;;-1.30;99.90;;;;;;5021277;28;20481;-84
2022/01/13 01:48:46;;;;;;;61.90;28.77;;;-1.40;99.90;;;;;;5020169;28;20030;-84
2022/01/13 01:51:11;;;;;;;57.38;26.13;;;-1.40;99.90;;;;;;5020995;28;20014;-84
2022/01/13 01:53:37;;;;;;;60.78;27.42;;;-1.40;99.90;;;;;;4991419;28;20037;-85
2022/01/13 01:56:03;;;;;;;66.30;28.63;;;-1.40;99.90;;;;;;5004013;28;20026;-82
2022/01/13 01:58:29;;;;;;;62.92;28.02;;;-1.40;99.90;;;;;;5020568;28;20030;-83
2022/01/13 02:00:55;;;;;;;57.90;25.83;;;-1.50;99.90;;;;;;5002300;28;20114;-84
2022/01/13 02:03:24;;;;;;;55.35;26.17;;;-1.40;99.90;;;;;;5020236;28;20061;-83
2022/01/13 02:05:49;;;;;;;60.75;28.00;;;-1.30;99.90;;;;;;5003473;28;20049;-84
2022/01/13 02:08:15;;;;;;;54.55;24.98;;;-1.30;99.90;;;;;;5020747;28;20038;-84
2022/01/13 02:10:44;;;;;;;63.40;27.63;;;-1.20;99.90;;;;;;5003414;28;20021;-84
2022/01/13 02:13:12;;;;;;;66.50;29.20;;;-1.20;99.90;;;;;;5003151;28;20050;-84
2022/01/13 02:18:33;;;;;;;62.58;26.67;;;-1.20;99.90;;;;;;5012513;28;20050;-84
2022/01/13 02:21:01;;;;;;;62.95;27.75;;;-1.10;99.90;;;;;;4997890;28;20030;-82
2022/01/13 02:23:38;;;;;;;61.50;25.73;;;-1.10;99.90;;;;;;5020879;28;20095;-82
2022/01/13 02:26:06;;;;;;;55.55;25.35;;;-1.10;99.90;;;;;;5009549;28;20048;-83
2022/01/13 02:28:32;;;;;;;58.65;26.58;;;-1.10;99.90;;;;;;5035562;28;20030;-83
2022/01/13 02:30:59;;;;;;;69.03;29.25;;;-1.10;99.90;;;;;;5017903;28;20030;-83
2022/01/13 02:33:25;;;;;;;61.95;27.30;;;-1.10;99.90;;;;;;5034539;28;20026;-84
2022/01/13 02:35:50;;;;;;;57.92;26.08;;;-1.10;99.90;;;;;;5022173;28;20081;-84
2022/01/13 02:38:16;;;;;;;60.38;28.00;;;-1.10;99.90;;;;;;5021939;28;20030;-84
2022/01/13 02:40:42;;;;;;;64.70;29.70;;;-1.10;99.90;;;;;;5022674;28;20418;-82
2022/01/13 02:43:08;;;;;;;72.88;30.15;;;-1.10;99.90;;;;;;5021907;28;20041;-84
2022/01/13 02:45:38;;;;;;;66.30;29.92;;;-1.10;99.90;;;;;;5003448;28;20080;-84
2022/01/13 02:50:52;;;;;;;63.72;29.23;;;-1.30;99.90;;;;;;5021024;28;20026;-84
2022/01/13 02:53:18;;;;;;;59.05;26.83;;;-1.50;99.90;;;;;;5009274;28;20030;-84
2022/01/13 02:55:43;;;;;;;63.15;27.70;;;-1.60;99.90;;;;;;5029996;28;20050;-83
2022/01/13 02:58:14;;;;;;;66.47;30.42;;;-1.70;99.90;;;;;;5015871;28;20026;-84
2022/01/13 03:00:40;;;;;;;64.22;29.08;;;-1.70;99.90;;;;;;5023552;28;20037;-84
2022/01/13 03:03:06;;;;;;;59.38;27.33;;;-1.70;99.90;;;;;;5005831;28;20026;-84
2022/01/13 03:05:37;;;;;;;66.00;28.52;;;-1.70;99.90;;;;;;5024285;28;20046;-83
2022/01/13 03:08:03;;;;;;;60.35;28.40;;;-1.70;99.90;;;;;;5024301;28;20499;-84
2022/01/13 03:10:29;;;;;;;67.45;30.23;;;-1.70;99.90;;;;;;5028896;28;20030;-84
2022/01/13 03:12:56;;;;;;;66.32;28.40;;;-1.60;99.90;;;;;;5014799;28;20010;-83
2022/01/13 03:15:22;;;;;;;66.85;29.40;;;-1.70;99.90;;;;;;5023050;28;20034;-84
2022/01/13 03:17:47;;;;;;;61.60;27.08;;;-1.70;99.90;;;;;;5022473;28;20029;-83
2022/01/13 03:20:14;;;;;;;56.45;26.23;;;-1.70;99.90;;;;;;5021238;28;20325;-85
2022/01/13 03:22:39;;;;;;;57.05;24.67;;;-1.60;99.90;;;;;;4991168;28;20117;-83
2022/01/13 03:25:06;;;;;;;61.38;26.75;;;-1.50;99.90;;;;;;4982312;28;20474;-82
2022/01/13 03:27:35;;;;;;;62.80;26.55;;;-1.40;99.90;;;;;;5014975;28;20498;-85
2022/01/13 03:30:06;;;;;;;60.28;24.48;;;-1.50;99.90;;;;;;5022525;28;20030;-84
2022/01/13 03:32:38;;;;;;;62.95;27.08;;;-1.40;99.90;;;;;;5020854;28;20034;-83
2022/01/13 03:35:06;;;;;;;55.65;24.88;;;-1.50;99.90;;;;;;5020833;28;20026;-84
2022/01/13 03:37:32;;;;;;;61.15;26.33;;;-1.50;99.90;;;;;;5020201;28;20034;-84
2022/01/13 03:39:58;;;;;;;53.80;24.45;;;-1.50;99.90;;;;;;5018669;28;20022;-84
2022/01/13 03:42:25;;;;;;;60.50;25.42;;;-1.40;99.90;;;;;;5020439;28;20081;-83
2022/01/13 03:44:50;;;;;;;64.78;26.42;;;-1.20;99.90;;;;;;5006879;28;20014;-83
2022/01/13 03:47:17;;;;;;;58.33;26.60;;;-1.10;99.90;;;;;;5025469;28;20030;-83
2022/01/13 03:49:42;;;;;;;58.92;26.38;;;-1.10;99.90;;;;;;5007015;28;20030;-83
2022/01/13 03:52:23;;;;;;;55.95;24.65;;;-1.20;99.90;;;;;;5024325;28;20089;-85
2022/01/13 03:55:26;;;;;;;53.47;25.25;;;-1.20;99.90;;;;;;5004587;28;20041;-83
2022/01/13 03:58:29;;;;;;;54.03;22.85;;;-1.20;99.90;;;;;;5020449;28;20025;-83
2022/01/13 04:01:23;;;;;;;55.00;24.17;;;-1.20;99.90;;;;;;5024143;28;20025;-84
2022/01/13 04:03:49;;;;;;;57.60;24.88;;;-1.30;99.90;;;;;;5021781;28;20065;-84
2022/01/13 04:06:14;;;;;;;52.53;24.02;;;-1.30;99.90;;;;;;5007022;28;20037;-84
2022/01/13 04:08:40;;;;;;;52.38;24.85;;;-1.30;99.90;;;;;;5008308;28;20029;-84
2022/01/13 04:11:06;;;;;;;66.63;29.42;;;-1.30;99.90;;;;;;5023491;28;20036;-85
2022/01/13 04:16:19;;;;;;;56.65;26.95;;;-1.40;99.90;;;;;;5027399;28;20089;-84
2022/01/13 04:18:46;;;;;;;53.40;25.75;;;-1.40;99.90;;;;;;5007969;28;20519;-85
2022/01/13 04:21:12;;;;;;;56.38;26.63;;;-1.50;99.90;;;;;;5003290;28;20050;-85
2022/01/13 04:23:39;;;;;;;60.70;26.52;;;-1.50;99.90;;;;;;5012279;28;20034;-84
2022/01/13 04:26:06;;;;;;;59.88;25.08;;;-1.50;99.90;;;;;;5022658;28;20026;-85
2022/01/13 04:28:33;;;;;;;57.42;25.63;;;-1.40;99.90;;;;;;5021691;28;20025;-85
2022/01/13 04:31:02;;;;;;;59.55;25.92;;;-1.40;99.90;;;;;;5022485;28;20022;-85
2022/01/13 04:33:30;;;;;;;52.10;24.17;;;-1.40;99.90;;;;;;5021529;28;20030;-85
2022/01/13 04:35:57;;;;;;;51.90;23.92;;;-1.30;99.90;;;;;;5003858;28;20026;-85
2022/01/13 04:38:23;;;;;;;55.45;24.17;;;-1.30;99.90;;;;;;5021711;28;20026;-85
2022/01/13 04:40:55;;;;;;;59.50;26.10;;;-1.20;99.90;;;;;;5020588;28;20025;-85
2022/01/13 04:43:24;;;;;;;61.65;26.67;;;-1.10;99.90;;;;;;5021016;28;20014;-84
2022/01/13 04:45:51;;;;;;;58.38;24.80;;;-1.10;99.90;;;;;;5022328;28;20017;-84
2022/01/13 04:48:17;;;;;;;57.25;24.88;;;-1.10;99.90;;;;;;5006134;28;20041;-83
2022/01/13 04:50:43;;;;;;;57.88;25.23;;;-1.10;99.90;;;;;;5023057;28;20109;-85
2022/01/13 04:53:10;;;;;;;54.13;23.65;;;-1.10;99.90;;;;;;5004200;28;20032;-83
2022/01/13 04:55:37;;;;;;;53.40;23.80;;;-1.00;99.90;;;;;;5022482;28;20022;-83
2022/01/13 04:58:05;;;;;;;52.38;23.40;;;-0.90;99.90;;;;;;5022439;28;20053;-85
2022/01/13 05:00:32;;;;;;;57.30;23.23;;;-0.90;99.90;;;;;;5028672;28;20065;-83
2022/01/13 05:02:59;;;;;;;51.28;23.63;;;-0.80;99.90;;;;;;5038351;28;20085;-81
2022/01/13 05:05:26;;;;;;;55.67;24.65;;;-0.90;99.90;;;;;;5025737;28;20534;-84
2022/01/13 05:07:53;;;;;;;49.00;22.42;;;-0.80;99.90;;;;;;4989956;28;20467;-84
2022/01/13 05:10:19;;;;;;;45.92;22.80;;;-0.80;99.90;;;;;;5022842;28;20065;-84
2022/01/13 05:12:47;;;;;;;50.25;22.40;;;-0.80;99.90;;;;;;5023908;28;20445;-85
2022/01/13 05:15:19;;;;;;;45.45;22.00;;;-0.80;99.90;;;;;;5022909;28;20040;-84
2022/01/13 05:18:09;;;;;;;49.50;22.40;;;-0.80;99.90;;;;;;5006042;28;20080;-84
2022/01/13 05:20:39;;;;;;;57.65;25.40;;;-0.80;99.90;;;;;;5069250;22;20108;-82
2022/01/13 05:23:07;;;;;;;55.95;25.30;;;-0.80;99.90;;;;;;5055361;28;20055;-82
2022/01/13 05:25:33;;;;;;;48.55;21.80;;;-0.80;99.90;;;;;;5054603;28;20037;-81
2022/01/13 05:27:59;;;;;;;48.97;23.13;;;-0.90;99.90;;;;;;5036783;28;20025;-81
2022/01/13 05:30:25;;;;;;;55.00;24.33;;;-1.00;99.90;;;;;;5037495;28;20041;-81
2022/01/13 05:32:51;;;;;;;52.60;24.25;;;-1.10;99.90;;;;;;5020846;28;20078;-81
2022/01/13 05:35:16;;;;;;;59.00;26.50;;;-1.10;99.90;;;;;;5022902;28;20030;-82
2022/01/13 05:37:43;;;;;;;58.20;25.73;;;-1.10;99.90;;;;;;5019493;28;20029;-82
2022/01/13 05:40:11;;;;;;;57.28;24.50;;;-1.20;99.90;;;;;;5032598;28;20017;-81
2022/01/13 05:42:37;;;;;;;48.33;22.50;;;-1.20;99.90;;;;;;5059342;28;20064;-82
2022/01/13 05:45:05;;;;;;;59.55;25.15;;;-1.20;99.90;;;;;;5038205;28;20063;-81
2022/01/13 05:47:31;;;;;;;46.53;21.17;;;-1.20;99.90;;;;;;5034416;28;20021;-80
2022/01/13 05:49:57;;;;;;;50.90;21.52;;;-1.20;99.90;;;;;;5039193;28;20032;-81
2022/01/13 05:52:23;;;;;;;48.50;21.60;;;-1.20;99.90;;;;;;5039676;28;20079;-82
2022/01/13 05:54:48;;;;;;;46.22;21.58;;;-1.30;99.90;;;;;;5039403;28;20052;-81
2022/01/13 05:57:14;;;;;;;47.92;21.42;;;-1.30;99.90;;;;;;5039951;28;20323;-80
2022/01/13 05:59:40;;;;;;;47.88;22.38;;;-1.30;99.90;;;;;;5021298;28;20064;-81
2022/01/13 06:02:05;;;;;;;46.42;19.95;;;-1.30;99.90;;;;;;5039823;28;20029;-81
2022/01/13 06:04:31;;;;;;;41.42;20.10;;;-1.40;99.90;;;;;;5039158;28;20030;-82
2022/01/13 06:06:57;;;;;;;47.70;22.13;;;-1.40;99.90;;;;;;5047124;28;20048;-82
2022/01/13 06:09:23;;;;;;;41.72;18.83;;;-1.50;99.90;;;;;;5040551;28;20028;-82
2022/01/13 06:11:56;;;;;;;38.83;19.02;;;-1.60;99.90;;;;;;5042334;28;20053;-81
2022/01/13 06:14:28;;;;;;;39.97;17.90;;;-1.70;99.90;;;;;;5042905;28;20102;-85
2022/01/13 06:16:57;;;;;;;39.42;18.25;;;-1.70;99.90;;;;;;5037646;28;20024;-83
2022/01/13 06:19:23;;;;;;;43.25;19.55;;;-1.70;99.90;;;;;;5038931;28;20035;-79
2022/01/13 06:21:51;;;;;;;44.05;20.48;;;-1.70;99.90;;;;;;5043347;28;20107;-81
2022/01/13 06:24:17;;;;;;;53.45;23.88;;;-1.70;99.90;;;;;;5030221;28;20048;-81
2022/01/13 06:26:43;;;;;;;45.47;20.77;;;-1.70;99.90;;;;;;5039719;28;20036;-83
2022/01/13 06:29:09;;;;;;;43.00;20.27;;;-1.70;99.90;;;;;;5064843;28;20040;-81
2022/01/13 06:31:34;;;;;;;36.08;18.05;;;-1.70;99.90;;;;;;5066077;28;20017;-83
2022/01/13 06:34:00;;;;;;;45.95;21.42;;;-1.70;99.90;;;;;;5053272;28;20032;-83
2022/01/13 06:36:26;;;;;;;42.85;19.88;;;-1.70;99.90;;;;;;5027023;28;20025;-80
2022/01/13 06:38:52;;;;;;;45.92;21.27;;;-1.80;99.90;;;;;;5037691;28;20033;-82
2022/01/13 06:41:18;;;;;;;46.53;20.70;;;-1.80;99.90;;;;;;5038781;28;20116;-80
2022/01/13 06:43:45;;;;;;;41.75;19.60;;;-1.80;99.90;;;;;;5039150;28;20039;-82
2022/01/13 06:46:15;;;;;;;41.88;18.65;;;-1.80;99.90;;;;;;5019587;28;20171;-81
2022/01/13 06:48:45;;;;;;;40.25;19.58;;;-1.80;99.90;;;;;;5038280;28;20029;-83
2022/01/13 06:51:11;;;;;;;46.50;20.67;;;-1.70;99.90;;;;;;5023103;28;20025;-82
2022/01/13 06:53:37;;;;;;;44.05;19.92;;;-1.80;99.90;;;;;;5035326;28;20089;-81
2022/01/13 06:56:04;;;;;;;48.65;21.33;;;-1.80;99.90;;;;;;5032904;28;20123;-80
2022/01/13 06:58:29;;;;;;;49.90;22.95;;;-1.90;99.90;;;;;;5056858;28;20025;-82
2022/01/13 07:00:55;;;;;;;54.88;22.10;;;-2.00;99.90;;;;;;5036511;28;20048;-82
2022/01/13 07:03:22;;;;;;;47.92;22.95;;;-2.10;99.90;;;;;;5038270;28;20029;-82
2022/01/13 07:05:47;;;;;;;49.72;20.98;;;-2.10;99.90;;;;;;5019501;28;20095;-82
2022/01/13 07:08:13;;;;;;;47.78;20.75;;;-2.10;99.90;;;;;;5042518;28;20041;-80
2022/01/13 07:10:40;;;;;;;51.28;22.33;;;-2.10;99.90;;;;;;5040930;28;20029;-80
2022/01/13 07:13:05;;;;;;;48.33;21.83;;;-2.10;99.90;;;;;;5064385;28;20029;-80
2022/01/13 07:15:32;;;;;;;45.05;21.05;;;-2.10;99.90;;;;;;5060173;28;20032;-82
2022/01/13 07:17:59;;;;;;;46.58;21.27;;;-2.10;99.90;;;;;;5031816;28;20093;-82
2022/01/13 07:20:26;;;;;;;50.85;20.83;;;-2.20;99.90;;;;;;5062620;28;20025;-83
2022/01/13 07:22:52;;;;;;;46.05;21.52;;;-2.10;99.90;;;;;;5044870;28;20021;-80
2022/01/13 07:25:19;;;;;;;44.72;20.00;;;-2.00;99.90;;;;;;5058064;28;20092;-79
2022/01/13 07:27:44;;;;;;;39.20;19.40;;;-1.90;99.90;;;;;;5046936;28;20289;-81
2022/01/13 07:30:11;;;;;;;39.42;17.92;;;-1.80;99.90;;;;;;5057761;28;20036;-80
2022/01/13 07:32:38;;;;;;;38.13;18.58;;;-1.80;99.90;;;;;;5059746;28;20059;-80
2022/01/13 07:35:05;;;;;;;41.53;17.38;;;-1.80;99.90;;;;;;5040060;28;20037;-81
2022/01/13 07:37:31;;;;;;;41.65;19.10;;;-1.80;99.90;;;;;;5024583;28;20348;-80
2022/01/13 07:39:56;;;;;;;38.13;17.48;;;-1.70;99.90;;;;;;5052180;28;20485;-79
2022/01/13 07:42:24;;;;;;;40.50;18.20;;;-1.60;99.90;;;;;;5023220;28;20078;-79
2022/01/13 07:44:50;;;;;;;39.38;18.38;;;-1.70;99.90;;;;;;5042613;28;20025;-80
2022/01/13 07:47:15;;;;;;;36.90;17.35;;;-1.80;99.90;;;;;;5059478;28;20094;-80
2022/01/13 07:49:41;;;;;;;36.03;17.02;;;-1.70;99.90;;;;;;5045289;28;20026;-80
2022/01/13 07:52:07;;;;;;;39.97;17.92;;;-1.70;99.90;;;;;;5050136;28;20021;-81
2022/01/13 07:54:33;;;;;;;36.50;17.63;;;-1.60;99.90;;;;;;5046885;28;20078;-80
2022/01/13 07:56:59;;;;;;;38.00;18.20;;;-1.50;99.90;;;;;;5032228;28;20460;-81
2022/01/13 07:59:28;;;;;;;42.72;18.23;;;-1.40;99.90;;;;;;5058757;28;20021;-80
2022/01/13 08:02:03;;;;;;;46.33;20.45;;;-1.30;99.90;;;;;;5042464;28;20431;-81
2022/01/13 08:04:29;;;;;;;44.55;20.48;;;-1.10;99.90;;;;;;5061616;28;20512;-80
2022/01/13 08:06:54;;;;;;;46.80;19.25;;;-1.00;99.90;;;;;;5059526;28;20033;-79
2022/01/13 08:09:20;;;;;;;39.85;17.67;;;-0.80;99.90;;;;;;5038667;28;20047;-80
2022/01/13 08:11:46;;;;;;;42.80;20.75;;;-0.70;99.90;;;;;;5036104;28;20033;-80
2022/01/13 08:14:12;;;;;;;41.53;19.35;;;-0.70;99.90;;;;;;5059411;28;20111;-81
2022/01/13 08:16:41;;;;;;;38.65;19.85;;;-0.70;99.90;;;;;;5055913;28;20057;-79
2022/01/13 08:21:51;;;;;;;41.75;18.67;;;-0.70;99.90;;;;;;5055277;28;20535;-80
2022/01/13 08:24:17;;;;;;;36.47;17.52;;;-0.70;99.90;;;;;;5051106;28;20056;-81
2022/01/13 08:26:42;;;;;;;35.95;17.83;;;-0.60;99.90;;;;;;5033292;28;20091;-81
2022/01/13 08:29:08;;;;;;;33.63;16.33;;;-0.40;99.90;;;;;;5040506;28;20033;-83
2022/01/13 08:31:34;;;;;;;36.70;17.67;;;-0.30;99.90;;;;;;5049569;28;20452;-80
2022/01/13 08:33:59;;;;;;;36.13;17.40;;;-0.30;99.70;;;;;;5039703;28;20052;-80
2022/01/13 08:36:25;;;;;;;34.00;16.90;;;-0.20;99.40;;;;;;5055766;28;20081;-82
2022/01/13 08:38:51;;;;;;;35.88;17.02;;;-0.20;99.40;;;;;;5032915;28;20593;-81
2022/01/13 08:41:17;;;;;;;39.47;17.73;;;-0.20;99.20;;;;;;5060091;28;20060;-82
2022/01/13 08:43:43;;;;;;;37.85;17.17;;;-0.20;99.10;;;;;;5062262;28;20033;-79
2022/01/13 08:46:08;;;;;;;37.55;16.77;;;-0.20;99.10;;;;;;5044016;28;20036;-81
2022/01/13 08:48:35;;;;;;;34.90;16.55;;;-0.20;99.10;;;;;;5060456;28;20025;-79
2022/01/13 08:51:03;;;;;;;36.38;17.98;;;-0.20;98.80;;;;;;5046448;28;20029;-82
2022/01/13 08:53:28;;;;;;;39.08;17.60;;;-0.10;98.60;;;;;;5044611;28;20021;-80
2022/01/13 08:55:55;;;;;;;37.10;18.35;;;0.00;98.30;;;;;;5042541;28;20456;-80
2022/01/13 08:58:29;;;;;;;48.35;21.45;;;0.20;98.10;;;;;;5045786;28;20022;-79
2022/01/13 09:00:56;;;;;;;46.00;21.90;;;0.20;97.20;;;;;;5054242;28;20514;-80
2022/01/13 09:03:22;;;;;;;42.97;19.98;;;0.20;96.90;;;;;;5033189;28;20021;-80
2022/01/13 09:05:48;;;;;;;44.45;21.30;;;0.10;97.20;;;;;;5048657;28;20026;-79
2022/01/13 09:08:14;;;;;;;43.28;19.02;;;0.10;97.50;;;;;;5054297;28;20032;-83
2022/01/13 09:10:42;;;;;;;39.25;19.00;;;0.20;97.50;;;;;;5049267;28;20032;-81
2022/01/13 09:13:15;;;;;;;39.53;18.58;;;0.30;97.20;;;;;;5048162;28;20504;-83
2022/01/13 09:15:46;;;;;;;38.25;17.52;;;0.50;97.20;;;;;;5064294;28;20025;-82
2022/01/13 09:18:31;;;;;;;33.85;17.33;;;0.70;96.70;;;;;;5066229;28;20120;-80
2022/01/13 09:20:58;;;;;;;34.53;16.45;;;0.80;96.30;;;;;;5027757;28;20025;-80
2022/01/13 09:23:24;;;;;;;36.00;17.75;;;1.00;96.30;;;;;;5065595;28;20017;-81
2022/01/13 09:25:50;;;;;;;36.38;18.08;;;1.20;95.70;;;;;;5044841;28;20024;-81
2022/01/13 09:28:52;;;;;;;38.25;18.80;;;1.20;95.10;;;;;;5062291;28;20036;-81
2022/01/13 09:31:19;;;;;;;37.92;19.10;;;1.20;94.80;;;;;;5031018;28;20037;-80
2022/01/13 09:33:45;;;;;;;30.65;15.55;;;1.20;94.60;;;;;;5006931;28;20033;-80
2022/01/13 09:36:11;;;;;;;31.50;15.70;;;1.10;94.60;;;;;;5029460;28;20100;-79
2022/01/13 09:38:40;;;;;;;55.20;22.52;;;1.20;94.50;;;;;;5037237;28;20036;-78
2022/01/13 09:41:11;;;;;;;51.58;23.67;;;1.10;93.90;;;;;;5051940;28;20312;-78
2022/01/13 09:43:37;;;;;;;46.40;22.03;;;0.90;93.70;;;;;;5071965;28;20095;-81
2022/01/13 09:46:03;;;;;;;43.00;20.27;;;0.80;94.30;;;;;;5070375;28;20386;-80
2022/01/13 09:48:31;;;;;;;44.22;22.23;;;0.90;94.60;;;;;;5035280;28;20029;-79
2022/01/13 09:50:56;;;;;;;52.05;23.70;;;1.00;94.60;;;;;;5027033;28;20061;-81
2022/01/13 09:53:22;;;;;;;44.40;21.70;;;0.90;94.80;;;;;;5060446;28;20036;-80
2022/01/13 09:55:49;;;;;;;45.88;22.98;;;0.90;94.50;;;;;;5066098;28;20059;-82
2022/01/13 09:58:16;;;;;;;46.28;20.85;;;0.80;94.50;;;;;;5059586;28;20025;-80
2022/01/13 10:00:46;;;;;;;40.33;19.15;;;0.80;95.00;;;;;;5061238;28;20088;-81
2022/01/13 10:03:13;;;;;;;44.42;20.92;;;1.00;95.20;;;;;;5043848;28;20029;-81
2022/01/13 10:05:53;;;;;;;45.63;21.13;;;1.20;95.10;;;;;;5062750;28;20365;-81
2022/01/13 10:08:43;;;;;;;45.22;21.25;;;1.50;94.60;;;;;;5057756;28;20041;-80
2022/01/13 10:11:33;;;;;;;49.08;23.05;;;1.50;93.70;;;;;;5053460;28;20025;-80
2022/01/13 10:14:13;;;;;;;50.40;22.85;;;1.30;93.60;;;;;;5052751;28;20025;-80
2022/01/13 10:16:49;;;;;;;45.65;21.15;;;1.30;93.70;;;;;;5058749;28;20040;-81
2022/01/13 10:19:34;;;;;;;50.80;23.40;;;1.20;93.90;;;;;;5048351;28;20032;-83
2022/01/13 10:22:07;;;;;;;52.90;23.05;;;1.30;93.50;;;;;;5049451;28;20494;-80
2022/01/13 10:24:35;;;;;;;43.38;20.88;;;1.40;93.60;;;;;;5033172;28;20029;-80
2022/01/13 10:27:07;;;;;;;48.78;23.20;;;1.50;93.40;;;;;;5041920;28;20056;-80
2022/01/13 10:29:47;;;;;;;52.83;23.25;;;1.40;92.90;;;;;;5057689;28;20025;-84
2022/01/13 10:32:42;;;;;;;41.85;19.85;;;1.40;93.00;;;;;;5021915;28;20362;-80
2022/01/13 10:35:11;;;;;;;47.03;22.35;;;1.30;93.20;;;;;;5024113;28;20033;-80
2022/01/13 10:37:39;;;;;;;45.63;20.60;;;1.30;92.90;;;;;;5024986;28;20045;-80
2022/01/13 10:40:08;;;;;;;41.30;19.80;;;1.30;93.00;;;;;;5054936;28;20039;-81
2022/01/13 10:45:07;;;;;;;52.05;21.75;;;1.40;93.00;;;;;;5061922;28;20029;-83
2022/01/13 10:47:34;;;;;;;53.67;22.45;;;1.40;92.90;;;;;;5058914;28;20037;-80
2022/01/13 10:50:03;;;;;;;44.28;21.15;;;1.50;92.90;;;;;;5060632;28;20058;-79
2022/01/13 10:52:29;;;;;;;41.88;20.00;;;1.50;92.70;;;;;;5057824;28;20045;-80
2022/01/13 10:55:20;;;;;;;41.30;20.48;;;1.70;92.70;;;;;;5033130;28;20089;-81
2022/01/13 10:57:46;;;;;;;42.15;18.55;;;1.70;92.10;;;;;;5043689;28;20025;-80
2022/01/13 11:00:24;;;;;;;39.40;18.85;;;1.80;92.20;;;;;;5043266;28;20120;-80
2022/01/13 11:03:00;;;;;;;37.72;18.70;;;2.10;92.10;;;;;;5042769;28;20088;-79
2022/01/13 11:05:27;;;;;;;33.10;16.55;;;2.40;91.50;;;;;;5061159;28;20025;-84
2022/01/13 11:07:54;;;;;;;36.85;18.95;;;2.50;90.90;;;;;;5041170;28;20060;-81
2022/01/13 11:13:08;;;;;;;41.72;20.23;;;2.40;89.90;;;;;;5380128;22;20049;-82
2022/01/13 11:15:45;;;;;;;38.30;19.15;;;2.20;89.30;;;;;;5054872;28;20067;-81
2022/01/13 11:18:11;;;;;;;32.05;15.82;;;2.10;90.00;;;;;;5039105;28;20037;-80
2022/01/13 11:20:38;;;;;;;28.38;15.10;;;2.20;90.20;;;;;;5038716;28;20044;-80
2022/01/13 11:23:03;;;;;;;31.02;16.30;;;2.20;89.90;;;;;;5036284;28;20102;-82
2022/01/13 11:25:29;;;;;;;28.60;15.60;;;2.30;89.90;;;;;;5064395;28;20025;-80
2022/01/13 11:27:56;;;;;;;25.75;13.85;;;2.50;89.50;;;;;;5059261;28;20018;-81
2022/01/13 11:30:27;;;;;;;25.00;13.75;;;2.70;88.90;;;;;;5054849;28;20095;-82
2022/01/13 11:32:53;;;;;;;26.92;14.05;;;2.80;87.90;;;;;;5051703;28;20133;-82
2022/01/13 11:35:22;;;;;;;23.40;13.38;;;2.90;87.20;;;;;;5061233;28;20017;-83
2022/01/13 11:37:50;;;;;;;20.98;11.20;;;3.00;86.50;;;;;;5029369;28;20017;-83
2022/01/13 11:40:28;;;;;;;23.23;12.07;;;3.10;86.10;;;;;;5027623;28;20082;-82
2022/01/13 11:42:59;;;;;;;23.15;12.43;;;3.20;85.20;;;;;;5043350;28;20068;-83
2022/01/13 11:45:26;;;;;;;24.92;13.20;;;3.20;84.40;;;;;;5041956;28;20056;-82
2022/01/13 11:48:12;;;;;;;24.50;12.75;;;3.30;83.90;;;;;;5038255;28;20108;-83
2022/01/13 11:50:51;;;;;;;24.02;12.30;;;3.30;83.40;;;;;;5023606;28;20030;-83
2022/01/13 11:53:28;;;;;;;30.77;15.32;;;3.20;83.80;;;;;;5031324;28;20036;-83
2022/01/13 11:56:07;;;;;;;31.90;14.07;;;2.90;82.80;;;;;;5047981;28;20028;-83
2022/01/13 11:58:41;;;;;;;27.02;14.38;;;2.80;83.70;;;;;;5041866;28;20025;-83
2022/01/13 12:01:17;;;;;;;33.50;16.50;;;2.90;84.10;;;;;;5043857;28;20083;-82
2022/01/13 12:03:52;;;;;;;31.38;15.30;;;3.00;82.20;;;;;;5061819;28;20078;-81
2022/01/13 12:06:40;;;;;;;33.25;15.48;;;3.00;81.80;;;;;;5062118;28;20025;-85
2022/01/13 12:09:11;;;;;;;29.27;15.98;;;2.90;82.00;;;;;;5048479;28;20028;-83
2022/01/13 12:11:41;;;;;;;29.60;15.60;;;2.80;81.80;;;;;;5057679;28;20033;-84
2022/01/13 12:14:31;;;;;;;31.95;15.30;;;2.80;81.80;;;;;;5048555;28;20279;-84
2022/01/13 12:17:08;;;;;;;32.35;17.05;;;2.90;82.30;;;;;;5043283;28;20453;-83
2022/01/13 12:19:48;;;;;;;35.38;17.20;;;2.90;81.70;;;;;;5044239;28;20017;-83
2022/01/13 12:22:36;;;;;;;37.58;18.77;;;2.90;82.00;;;;;;5034550;28;20032;-82
2022/01/13 12:25:04;;;;;;;33.95;17.80;;;2.90;82.70;;;;;;5049996;28;20030;-82
2022/01/13 12:27:39;;;;;;;35.58;18.50;;;2.80;83.10;;;;;;5045078;28;20083;-81
2022/01/13 12:30:25;;;;;;;44.92;18.35;;;2.80;84.00;;;;;;5044428;28;20112;-82
2022/01/13 12:33:03;;;;;;;40.50;19.58;;;2.80;84.50;;;;;;5046556;28;20076;-82
2022/01/13 12:35:39;;;;;;;42.80;20.02;;;2.70;84.90;;;;;;5047544;28;20021;-83
2022/01/13 12:38:24;;;;;;;44.97;19.75;;;2.70;85.00;;;;;;5046405;28;20036;-81
2022/01/13 12:41:02;;;;;;;42.75;19.00;;;2.50;85.80;;;;;;5033421;28;20025;-82
2022/01/13 12:46:13;;;;;;;58.63;20.55;;;2.40;87.40;;;;;;5042958;28;20078;-83
2022/01/13 12:48:41;;;;;;;41.22;19.50;;;2.40;87.00;;;;;;5041253;28;20029;-83
2022/01/13 12:51:12;;;;;;;40.40;19.80;;;2.30;88.10;;;;;;5038293;28;20486;-83
2022/01/13 12:53:37;;;;;;;37.63;18.50;;;2.30;88.40;;;;;;5049745;28;20021;-83
2022/01/13 12:56:08;;;;;;;43.75;19.40;;;2.20;89.00;;;;;;5054610;28;20089;-84
2022/01/13 12:58:45;;;;;;;39.25;18.13;;;2.20;88.30;;;;;;5058837;28;20045;-83
2022/01/13 13:01:21;;;;;;;52.10;19.27;;;2.10;88.40;;;;;;5077285;28;20055;-81
2022/01/13 13:04:04;;;;;;;39.08;18.70;;;2.10;88.20;;;;;;5043107;28;20048;-80
2022/01/13 13:06:32;;;;;;;46.20;19.30;;;2.00;89.00;;;;;;5054202;28;20029;-81
2022/01/13 13:09:06;;;;;;;38.38;19.05;;;2.10;88.70;;;;;;5047521;28;20033;-82
2022/01/13 13:11:33;;;;;;;39.55;19.90;;;2.10;88.70;;;;;;5058334;28;20081;-82
2022/01/13 13:17:46;;;;;;;38.60;18.85;;;2.00;89.40;;;;;;5032633;28;20055;-83
2022/01/13 13:20:26;;;;;;;34.60;16.60;;;2.00;89.70;;;;;;5023341;28;20059;-83